virtualACA

Welcome To Calgary International Airport CYYC

Hub Roster

Pilot Domicile Rank
Ethan Title - ACA1641CanadaChief Pilot
Graham Dawson - ACA2317CanadaChief Pilot
Nemeth Istvan - ACA3257HungaryNew Hire
Burt Dykeman - ACA3267CanadaSecond Officer
Ross Mayl - ACA3271United KingdomNew Hire
Rashaido Brown - ACA3288JamaicaSecond Officer
Pam Magee - ACA3298CanadaSecond Officer

Current Vatsim Weather


CYYC 190200Z 16007KT 15SM BKN110 BKN130 BKN180 M20/M24 A3021 RMK AS5AC1AC1 AC TR SLP349
Calgary International Airport